FZRO weather

Luvua Airport
Luvua, Katanga Province, Congo (Kinshasa)

Public forecast

Using degrees Celsius for public forecast. Weather courtesy of forecast.io.

Closest aviation weather report (METAR) to Luvua Airport

Report is more than 6 hours old.

Closest report is Kawambwa Airport, 116.8 nm (216.3 km) SSE. Retrieved 2010/07/29 12:00 UTC (10 years ago):

FLKB 291200Z 18006KT CAVOK 25/08

Closest aviation forecast (TAF) to Luvua Airport

Forecast is more than 12 hours old.

Closest forecast is Songwe Airport, 287.7 nm (532.9 km) ESE. Retrieved 2020-04-24 00:00 UTC (1 month ago):

TAF HTGW 232300Z 2400/2424 12010KT 9999 SCT020 FEW021CB